sensor_id;sensor_type;location;lat;lon;timestamp;pressure;altitude;pressure_sealevel;temperature;humidity
51245;BME280;37840;47.562;18.738;2023-04-04T00:01:56;99993.63;;;2.09;49.37
51245;BME280;37840;47.562;18.738;2023-04-04T00:04:25;99990.69;;;1.92;50.18
51245;BME280;37840;47.562;18.738;2023-04-04T00:06:51;99992.56;;;1.87;50.41
51245;BME280;37840;47.562;18.738;2023-04-04T00:09:16;99985.97;;;1.75;50.71
51245;BME280;37840;47.562;18.738;2023-04-04T00:11:42;99979.25;;;1.66;50.96
51245;BME280;37840;47.562;18.738;2023-04-04T00:14:08;99979.56;;;1.55;51.19
51245;BME280;37840;47.562;18.738;2023-04-04T00:16:34;99982.59;;;1.41;52.07
51245;BME280;37840;47.562;18.738;2023-04-04T00:18:59;99985.00;;;1.49;51.68
51245;BME280;37840;47.562;18.738;2023-04-04T00:21:25;99985.03;;;1.48;51.45
51245;BME280;37840;47.562;18.738;2023-04-04T00:23:55;99979.78;;;1.48;51.35
51245;BME280;37840;47.562;18.738;2023-04-04T00:26:22;99983.75;;;1.31;51.63
51245;BME280;37840;47.562;18.738;2023-04-04T00:28:47;99986.47;;;1.28;51.39
51245;BME280;37840;47.562;18.738;2023-04-04T00:31:13;99986.84;;;1.16;52.11
51245;BME280;37840;47.562;18.738;2023-04-04T00:33:39;99984.25;;;1.14;52.17
51245;BME280;37840;47.562;18.738;2023-04-04T00:36:04;99991.94;;;1.20;51.92
51245;BME280;37840;47.562;18.738;2023-04-04T00:38:30;99993.69;;;1.20;51.42
51245;BME280;37840;47.562;18.738;2023-04-04T00:40:56;99997.03;;;1.25;51.75
51245;BME280;37840;47.562;18.738;2023-04-04T00:43:22;99998.28;;;1.43;51.19
51245;BME280;37840;47.562;18.738;2023-04-04T00:45:48;99995.78;;;1.38;51.28
51245;BME280;37840;47.562;18.738;2023-04-04T00:48:14;99988.66;;;1.43;51.14
51245;BME280;37840;47.562;18.738;2023-04-04T00:50:40;99994.31;;;1.30;51.65
51245;BME280;37840;47.562;18.738;2023-04-04T00:53:05;99998.81;;;1.25;51.98
51245;BME280;37840;47.562;18.738;2023-04-04T00:55:31;99995.34;;;1.24;52.11
51245;BME280;37840;47.562;18.738;2023-04-04T00:57:58;99988.28;;;1.26;52.09
51245;BME280;37840;47.562;18.738;2023-04-04T01:00:24;99985.19;;;1.12;52.63
51245;BME280;37840;47.562;18.738;2023-04-04T01:02:50;99986.22;;;1.06;52.62
51245;BME280;37840;47.562;18.738;2023-04-04T01:05:16;99981.22;;;0.98;52.94
51245;BME280;37840;47.562;18.738;2023-04-04T01:07:42;99981.41;;;0.91;53.45
51245;BME280;37840;47.562;18.738;2023-04-04T01:10:08;99975.88;;;1.01;52.66
51245;BME280;37840;47.562;18.738;2023-04-04T01:12:33;99982.00;;;1.02;52.33
51245;BME280;37840;47.562;18.738;2023-04-04T01:14:59;99969.59;;;1.09;52.08
51245;BME280;37840;47.562;18.738;2023-04-04T01:17:26;99975.94;;;1.00;52.34
51245;BME280;37840;47.562;18.738;2023-04-04T01:22:33;99958.44;;;1.02;52.37
51245;BME280;37840;47.562;18.738;2023-04-04T01:24:59;99956.81;;;0.98;52.30
51245;BME280;37840;47.562;18.738;2023-04-04T01:27:26;99954.19;;;0.98;52.58
51245;BME280;37840;47.562;18.738;2023-04-04T01:29:52;99952.44;;;0.97;52.75
51245;BME280;37840;47.562;18.738;2023-04-04T01:32:19;99953.25;;;0.99;52.46
51245;BME280;37840;47.562;18.738;2023-04-04T01:34:54;99949.75;;;1.00;52.18
51245;BME280;37840;47.562;18.738;2023-04-04T01:38:23;99944.75;;;0.91;52.43
51245;BME280;37840;47.562;18.738;2023-04-04T01:40:17;99939.66;;;0.86;52.84
51245;BME280;37840;47.562;18.738;2023-04-04T01:42:46;99932.66;;;0.87;52.56
51245;BME280;37840;47.562;18.738;2023-04-04T01:45:12;99934.56;;;0.81;52.97
51245;BME280;37840;47.562;18.738;2023-04-04T01:47:41;99931.44;;;0.69;53.61
51245;BME280;37840;47.562;18.738;2023-04-04T01:50:07;99932.53;;;0.60;53.29
51245;BME280;37840;47.562;18.738;2023-04-04T01:52:34;99920.09;;;0.68;53.09
51245;BME280;37840;47.562;18.738;2023-04-04T01:55:00;99915.22;;;0.56;53.68
51245;BME280;37840;47.562;18.738;2023-04-04T01:57:26;99914.12;;;0.63;53.23
51245;BME280;37840;47.562;18.738;2023-04-04T01:59:51;99905.38;;;0.64;53.01
51245;BME280;37840;47.562;18.738;2023-04-04T02:02:17;99896.78;;;0.59;53.59
51245;BME280;37840;47.562;18.738;2023-04-04T02:04:43;99895.81;;;0.63;53.20
51245;BME280;37840;47.562;18.738;2023-04-04T02:07:08;99889.94;;;0.55;53.60
51245;BME280;37840;47.562;18.738;2023-04-04T02:09:34;99898.81;;;0.49;53.91
51245;BME280;37840;47.562;18.738;2023-04-04T02:12:00;99900.22;;;0.61;53.86
51245;BME280;37840;47.562;18.738;2023-04-04T02:14:26;99896.66;;;0.64;53.57
51245;BME280;37840;47.562;18.738;2023-04-04T02:16:51;99897.41;;;0.69;53.88
51245;BME280;37840;47.562;18.738;2023-04-04T02:19:17;99888.78;;;0.65;53.72
51245;BME280;37840;47.562;18.738;2023-04-04T02:21:43;99893.16;;;0.65;53.94
51245;BME280;37840;47.562;18.738;2023-04-04T02:24:09;99887.63;;;0.75;53.64
51245;BME280;37840;47.562;18.738;2023-04-04T02:26:35;99889.41;;;0.73;53.89
51245;BME280;37840;47.562;18.738;2023-04-04T02:29:00;99889.44;;;0.72;54.00
51245;BME280;37840;47.562;18.738;2023-04-04T02:31:27;99879.72;;;0.77;54.05
51245;BME280;37840;47.562;18.738;2023-04-04T02:33:53;99879.72;;;0.77;53.76
51245;BME280;37840;47.562;18.738;2023-04-04T02:36:18;99876.38;;;0.72;54.33
51245;BME280;37840;47.562;18.738;2023-04-04T02:38:44;99873.69;;;0.75;54.04
51245;BME280;37840;47.562;18.738;2023-04-04T02:41:10;99871.94;;;0.74;54.20
51245;BME280;37840;47.562;18.738;2023-04-04T02:43:35;99869.41;;;0.72;54.45
51245;BME280;37840;47.562;18.738;2023-04-04T02:46:01;99869.50;;;0.68;54.64
51245;BME280;37840;47.562;18.738;2023-04-04T02:48:27;99866.00;;;0.69;54.89
51245;BME280;37840;47.562;18.738;2023-04-04T02:50:53;99860.66;;;0.72;54.64
51245;BME280;37840;47.562;18.738;2023-04-04T02:53:19;99858.28;;;0.64;54.76
51245;BME280;37840;47.562;18.738;2023-04-04T02:55:44;99858.47;;;0.58;55.31
51245;BME280;37840;47.562;18.738;2023-04-04T02:58:10;99859.31;;;0.58;55.04
51245;BME280;37840;47.562;18.738;2023-04-04T03:00:36;99860.41;;;0.51;55.79
51245;BME280;37840;47.562;18.738;2023-04-04T03:03:02;99858.94;;;0.41;55.79
51245;BME280;37840;47.562;18.738;2023-04-04T03:05:28;99855.38;;;0.44;55.87
51245;BME280;37840;47.562;18.738;2023-04-04T03:07:54;99858.78;;;0.46;55.94
51245;BME280;37840;47.562;18.738;2023-04-04T03:10:21;99866.47;;;0.52;55.74
51245;BME280;37840;47.562;18.738;2023-04-04T03:12:46;99863.00;;;0.51;55.62
51245;BME280;37840;47.562;18.738;2023-04-04T03:15:12;99873.38;;;0.54;55.09
51245;BME280;37840;47.562;18.738;2023-04-04T03:17:38;99881.19;;;0.56;55.29
51245;BME280;37840;47.562;18.738;2023-04-04T03:20:04;99880.38;;;0.54;55.63
51245;BME280;37840;47.562;18.738;2023-04-04T03:22:30;99883.78;;;0.57;55.71
51245;BME280;37840;47.562;18.738;2023-04-04T03:24:56;99881.66;;;0.39;56.33
51245;BME280;37840;47.562;18.738;2023-04-04T03:27:25;99890.34;;;0.39;56.73
51245;BME280;37840;47.562;18.738;2023-04-04T03:29:51;99887.03;;;0.33;57.18
51245;BME280;37840;47.562;18.738;2023-04-04T03:32:16;99880.22;;;0.27;57.65
51245;BME280;37840;47.562;18.738;2023-04-04T03:34:42;99889.81;;;0.27;57.69
51245;BME280;37840;47.562;18.738;2023-04-04T03:37:09;99889.00;;;0.25;57.96
51245;BME280;37840;47.562;18.738;2023-04-04T03:39:35;99890.06;;;0.17;58.11
51245;BME280;37840;47.562;18.738;2023-04-04T03:42:00;99891.09;;;0.12;58.50
51245;BME280;37840;47.562;18.738;2023-04-04T03:44:26;99889.41;;;0.09;58.62
51245;BME280;37840;47.562;18.738;2023-04-04T03:46:52;99888.63;;;0.06;58.26
51245;BME280;37840;47.562;18.738;2023-04-04T03:49:17;99892.84;;;0.11;57.90
51245;BME280;37840;47.562;18.738;2023-04-04T03:51:43;99892.16;;;0.05;57.90
51245;BME280;37840;47.562;18.738;2023-04-04T03:54:09;99897.31;;;0.06;58.01
51245;BME280;37840;47.562;18.738;2023-04-04T03:56:35;99898.28;;;0.02;58.05
51245;BME280;37840;47.562;18.738;2023-04-04T03:59:01;99901.09;;;-0.04;58.18
51245;BME280;37840;47.562;18.738;2023-04-04T04:01:26;99895.03;;;-0.06;58.46
51245;BME280;37840;47.562;18.738;2023-04-04T04:03:52;99893.25;;;-0.04;58.29
51245;BME280;37840;47.562;18.738;2023-04-04T04:06:18;99898.69;;;-0.13;58.42
51245;BME280;37840;47.562;18.738;2023-04-04T04:08:44;99897.09;;;-0.19;58.65
51245;BME280;37840;47.562;18.738;2023-04-04T04:11:09;99896.88;;;-0.10;58.12
51245;BME280;37840;47.562;18.738;2023-04-04T04:13:35;99892.78;;;-0.22;58.22
51245;BME280;37840;47.562;18.738;2023-04-04T04:16:03;99887.50;;;-0.18;57.72
51245;BME280;37840;47.562;18.738;2023-04-04T04:18:29;99899.53;;;-0.13;57.75
51245;BME280;37840;47.562;18.738;2023-04-04T04:20:55;99897.72;;;-0.09;57.70
51245;BME280;37840;47.562;18.738;2023-04-04T04:23:22;99891.63;;;-0.10;57.86
51245;BME280;37840;47.562;18.738;2023-04-04T04:25:48;99893.44;;;-0.12;58.38
51245;BME280;37840;47.562;18.738;2023-04-04T04:28:13;99886.72;;;-0.22;59.28
51245;BME280;37840;47.562;18.738;2023-04-04T04:30:39;99888.69;;;-0.32;59.31
51245;BME280;37840;47.562;18.738;2023-04-04T04:33:05;99885.31;;;-0.37;59.07
51245;BME280;37840;47.562;18.738;2023-04-04T04:35:31;99883.50;;;-0.33;59.10
51245;BME280;37840;47.562;18.738;2023-04-04T04:37:56;99873.88;;;-0.31;58.86
51245;BME280;37840;47.562;18.738;2023-04-04T04:40:22;99873.94;;;-0.34;59.11
51245;BME280;37840;47.562;18.738;2023-04-04T04:42:48;99871.25;;;-0.31;58.64
51245;BME280;37840;47.562;18.738;2023-04-04T04:45:13;99878.44;;;-0.39;58.85
51245;BME280;37840;47.562;18.738;2023-04-04T04:47:39;99888.75;;;-0.35;58.73
51245;BME280;37840;47.562;18.738;2023-04-04T04:50:05;99886.25;;;-0.39;58.59
51245;BME280;37840;47.562;18.738;2023-04-04T04:52:34;99874.75;;;-0.32;58.34
51245;BME280;37840;47.562;18.738;2023-04-04T04:55:00;99884.38;;;-0.34;58.63
51245;BME280;37840;47.562;18.738;2023-04-04T04:57:26;99881.69;;;-0.30;58.58
51245;BME280;37840;47.562;18.738;2023-04-04T04:59:52;99875.38;;;-0.21;58.45
51245;BME280;37840;47.562;18.738;2023-04-04T05:02:18;99868.09;;;-0.08;57.73
51245;BME280;37840;47.562;18.738;2023-04-04T05:04:44;99875.12;;;-0.12;58.25
51245;BME280;37840;47.562;18.738;2023-04-04T05:07:10;99870.00;;;-0.15;58.21
51245;BME280;37840;47.562;18.738;2023-04-04T05:09:37;99867.25;;;-0.10;58.30
51245;BME280;37840;47.562;18.738;2023-04-04T05:12:03;99865.25;;;-0.01;58.17
51245;BME280;37840;47.562;18.738;2023-04-04T05:14:29;99864.78;;;0.18;57.01
51245;BME280;37840;47.562;18.738;2023-04-04T05:16:55;99867.53;;;0.13;57.64
51245;BME280;37840;47.562;18.738;2023-04-04T05:19:21;99872.81;;;0.10;57.61
51245;BME280;37840;47.562;18.738;2023-04-04T05:21:47;99885.44;;;0.27;57.42
51245;BME280;37840;47.562;18.738;2023-04-04T05:24:12;99874.84;;;0.32;56.82
51245;BME280;37840;47.562;18.738;2023-04-04T05:26:38;99877.59;;;0.27;57.15
51245;BME280;37840;47.562;18.738;2023-04-04T05:29:06;99878.91;;;0.44;56.69
51245;BME280;37840;47.562;18.738;2023-04-04T05:31:32;99877.06;;;0.47;56.79
51245;BME280;37840;47.562;18.738;2023-04-04T05:33:58;99869.59;;;0.65;56.40
51245;BME280;37840;47.562;18.738;2023-04-04T05:36:24;99864.19;;;0.71;55.84
51245;BME280;37840;47.562;18.738;2023-04-04T05:38:50;99862.28;;;0.76;55.87
51245;BME280;37840;47.562;18.738;2023-04-04T05:41:16;99860.03;;;0.93;54.91
51245;BME280;37840;47.562;18.738;2023-04-04T05:43:42;99862.44;;;1.01;54.66
51245;BME280;37840;47.562;18.738;2023-04-04T05:46:07;99878.34;;;0.93;55.09
51245;BME280;37840;47.562;18.738;2023-04-04T05:48:34;99882.66;;;0.96;56.23
51245;BME280;37840;47.562;18.738;2023-04-04T05:50:59;99884.56;;;1.19;55.09
51245;BME280;37840;47.562;18.738;2023-04-04T05:53:25;99888.56;;;1.32;55.55
51245;BME280;37840;47.562;18.738;2023-04-04T05:55:51;99892.78;;;1.65;54.35
51245;BME280;37840;47.562;18.738;2023-04-04T05:58:17;99897.47;;;1.81;54.39
51245;BME280;37840;47.562;18.738;2023-04-04T06:00:43;99897.56;;;2.05;54.54
51245;BME280;37840;47.562;18.738;2023-04-04T06:03:09;99893.84;;;2.37;53.10
51245;BME280;37840;47.562;18.738;2023-04-04T06:05:35;99907.16;;;2.56;52.38
51245;BME280;37840;47.562;18.738;2023-04-04T06:08:00;99906.34;;;2.79;51.39
51245;BME280;37840;47.562;18.738;2023-04-04T06:10:26;99906.72;;;2.94;50.94
51245;BME280;37840;47.562;18.738;2023-04-04T06:12:52;99909.56;;;3.11;50.45
51245;BME280;37840;47.562;18.738;2023-04-04T06:15:17;99898.62;;;3.22;51.03
51245;BME280;37840;47.562;18.738;2023-04-04T06:17:43;99897.13;;;3.38;49.91
51245;BME280;37840;47.562;18.738;2023-04-04T06:20:09;99898.03;;;3.81;48.61
51245;BME280;37840;47.562;18.738;2023-04-04T06:22:35;99890.72;;;4.51;48.33
51245;BME280;37840;47.562;18.738;2023-04-04T06:25:01;99895.47;;;5.39;45.62
51245;BME280;37840;47.562;18.738;2023-04-04T06:27:26;99893.72;;;6.30;43.33
51245;BME280;37840;47.562;18.738;2023-04-04T06:29:52;99889.97;;;7.34;41.07
51245;BME280;37840;47.562;18.738;2023-04-04T06:32:18;99891.44;;;8.32;38.44
51245;BME280;37840;47.562;18.738;2023-04-04T06:34:44;99884.16;;;9.77;36.02
51245;BME280;37840;47.562;18.738;2023-04-04T06:37:10;99878.50;;;11.00;34.08
51245;BME280;37840;47.562;18.738;2023-04-04T06:39:36;99879.06;;;11.67;31.83
51245;BME280;37840;47.562;18.738;2023-04-04T06:42:01;99882.78;;;12.36;31.08
51245;BME280;37840;47.562;18.738;2023-04-04T06:44:27;99887.31;;;13.60;29.07
51245;BME280;37840;47.562;18.738;2023-04-04T06:46:53;99881.94;;;14.99;26.82
51245;BME280;37840;47.562;18.738;2023-04-04T06:49:19;99872.72;;;16.31;24.37
51245;BME280;37840;47.562;18.738;2023-04-04T06:51:44;99859.16;;;17.82;22.52
51245;BME280;37840;47.562;18.738;2023-04-04T06:54:11;99832.84;;;19.08;21.05
51245;BME280;37840;47.562;18.738;2023-04-04T06:56:36;99831.59;;;20.04;19.71
51245;BME280;37840;47.562;18.738;2023-04-04T06:59:02;99823.22;;;19.65;20.22
51245;BME280;37840;47.562;18.738;2023-04-04T07:01:28;99827.47;;;20.74;19.18
51245;BME280;37840;47.562;18.738;2023-04-04T07:03:53;99838.41;;;20.89;18.92
51245;BME280;37840;47.562;18.738;2023-04-04T07:06:22;99834.28;;;20.62;19.18
51245;BME280;37840;47.562;18.738;2023-04-04T07:08:49;99833.91;;;19.99;19.26
51245;BME280;37840;47.562;18.738;2023-04-04T07:11:14;99835.75;;;18.19;20.42
51245;BME280;37840;47.562;18.738;2023-04-04T07:13:40;99841.78;;;16.94;22.13
51245;BME280;37840;47.562;18.738;2023-04-04T07:16:06;99836.91;;;16.69;23.41
51245;BME280;37840;47.562;18.738;2023-04-04T07:18:32;99832.69;;;15.31;23.94
51245;BME280;37840;47.562;18.738;2023-04-04T07:20:57;99829.72;;;14.83;24.51
51245;BME280;37840;47.562;18.738;2023-04-04T07:23:23;99840.81;;;13.62;26.14
51245;BME280;37840;47.562;18.738;2023-04-04T07:25:49;99840.31;;;13.69;26.75
51245;BME280;37840;47.562;18.738;2023-04-04T07:28:16;99849.50;;;13.43;27.32
51245;BME280;37840;47.562;18.738;2023-04-04T07:30:41;99859.69;;;13.38;27.73
51245;BME280;37840;47.562;18.738;2023-04-04T07:33:07;99857.22;;;12.45;28.92
51245;BME280;37840;47.562;18.738;2023-04-04T07:35:33;99859.44;;;11.07;30.81
51245;BME280;37840;47.562;18.738;2023-04-04T07:37:59;99858.72;;;10.79;31.44
51245;BME280;37840;47.562;18.738;2023-04-04T07:40:25;99854.50;;;10.11;32.66
51245;BME280;37840;47.562;18.738;2023-04-04T07:42:50;99863.19;;;9.18;33.49
51245;BME280;37840;47.562;18.738;2023-04-04T07:45:18;99876.66;;;8.87;35.42
51245;BME280;37840;47.562;18.738;2023-04-04T07:47:44;99868.97;;;8.53;35.30
51245;BME280;37840;47.562;18.738;2023-04-04T07:50:13;99870.91;;;8.05;36.61
51245;BME280;37840;47.562;18.738;2023-04-04T07:52:39;99863.75;;;7.61;36.99
51245;BME280;37840;47.562;18.738;2023-04-04T07:55:06;99869.31;;;7.09;38.95
51245;BME280;37840;47.562;18.738;2023-04-04T07:57:32;99873.75;;;7.08;39.28
51245;BME280;37840;47.562;18.738;2023-04-04T07:59:58;99867.59;;;7.08;39.08
51245;BME280;37840;47.562;18.738;2023-04-04T08:02:24;99859.13;;;7.01;39.47
51245;BME280;37840;47.562;18.738;2023-04-04T08:04:49;99857.94;;;6.91;39.78
51245;BME280;37840;47.562;18.738;2023-04-04T08:07:15;99850.28;;;7.02;39.93
51245;BME280;37840;47.562;18.738;2023-04-04T08:09:41;99854.63;;;7.03;39.54
51245;BME280;37840;47.562;18.738;2023-04-04T08:12:07;99858.91;;;7.06;39.86
51245;BME280;37840;47.562;18.738;2023-04-04T08:14:32;99864.37;;;7.19;38.90
51245;BME280;37840;47.562;18.738;2023-04-04T08:16:58;99863.41;;;7.04;38.73
51245;BME280;37840;47.562;18.738;2023-04-04T08:19:24;99858.31;;;7.17;39.73
51245;BME280;37840;47.562;18.738;2023-04-04T08:21:49;99847.72;;;7.32;38.74
51245;BME280;37840;47.562;18.738;2023-04-04T08:24:16;99857.84;;;7.56;38.80
51245;BME280;37840;47.562;18.738;2023-04-04T08:26:41;99867.94;;;7.49;36.89
51245;BME280;37840;47.562;18.738;2023-04-04T08:29:07;99867.25;;;7.62;37.11
51245;BME280;37840;47.562;18.738;2023-04-04T08:31:33;99851.53;;;7.59;38.89
51245;BME280;37840;47.562;18.738;2023-04-04T08:33:59;99862.22;;;7.57;39.09
51245;BME280;37840;47.562;18.738;2023-04-04T08:36:27;99864.78;;;7.43;39.41
51245;BME280;37840;47.562;18.738;2023-04-04T08:38:53;99868.12;;;7.46;38.21
51245;BME280;37840;47.562;18.738;2023-04-04T08:41:18;99872.28;;;7.34;38.06
51245;BME280;37840;47.562;18.738;2023-04-04T08:43:45;99858.97;;;7.52;39.28
51245;BME280;37840;47.562;18.738;2023-04-04T08:46:20;99854.16;;;7.74;38.25
51245;BME280;37840;47.562;18.738;2023-04-04T08:48:46;99851.16;;;7.81;38.72
51245;BME280;37840;47.562;18.738;2023-04-04T08:51:12;99861.28;;;7.88;38.89
51245;BME280;37840;47.562;18.738;2023-04-04T08:53:38;99866.66;;;8.03;38.24
51245;BME280;37840;47.562;18.738;2023-04-04T08:56:04;99855.34;;;8.15;37.59
51245;BME280;37840;47.562;18.738;2023-04-04T08:58:30;99856.91;;;8.03;37.28
51245;BME280;37840;47.562;18.738;2023-04-04T09:00:56;99852.22;;;7.92;37.37
51245;BME280;37840;47.562;18.738;2023-04-04T09:03:23;99848.31;;;8.00;38.02
51245;BME280;37840;47.562;18.738;2023-04-04T09:05:49;99836.34;;;8.23;37.66
51245;BME280;37840;47.562;18.738;2023-04-04T09:08:15;99828.22;;;8.40;38.28
51245;BME280;37840;47.562;18.738;2023-04-04T09:10:42;99830.25;;;8.51;37.32
51245;BME280;37840;47.562;18.738;2023-04-04T09:13:09;99843.59;;;8.64;37.95
51245;BME280;37840;47.562;18.738;2023-04-04T09:15:36;99839.66;;;8.56;36.48
51245;BME280;37840;47.562;18.738;2023-04-04T09:18:03;99836.03;;;8.57;36.55
51245;BME280;37840;47.562;18.738;2023-04-04T09:20:33;99820.22;;;8.70;36.45
51245;BME280;37840;47.562;18.738;2023-04-04T09:22:59;99827.03;;;8.74;37.11
51245;BME280;37840;47.562;18.738;2023-04-04T09:25:25;99816.50;;;9.02;37.72
51245;BME280;37840;47.562;18.738;2023-04-04T09:27:51;99824.38;;;9.03;37.61
51245;BME280;37840;47.562;18.738;2023-04-04T09:30:17;99836.03;;;8.86;38.44
51245;BME280;37840;47.562;18.738;2023-04-04T09:32:43;99824.69;;;8.84;36.78
51245;BME280;37840;47.562;18.738;2023-04-04T09:35:10;99821.16;;;8.84;36.81
51245;BME280;37840;47.562;18.738;2023-04-04T09:37:39;99815.47;;;8.90;35.26
51245;BME280;37840;47.562;18.738;2023-04-04T09:40:06;99816.81;;;8.68;35.08
51245;BME280;37840;47.562;18.738;2023-04-04T09:42:33;99822.50;;;8.76;36.33
51245;BME280;37840;47.562;18.738;2023-04-04T09:44:59;99818.03;;;8.77;35.08
51245;BME280;37840;47.562;18.738;2023-04-04T09:47:29;99825.06;;;8.64;35.77
51245;BME280;37840;47.562;18.738;2023-04-04T09:50:00;99811.13;;;8.74;35.86
51245;BME280;37840;47.562;18.738;2023-04-04T09:52:26;99817.19;;;8.62;35.88
51245;BME280;37840;47.562;18.738;2023-04-04T09:54:56;99817.41;;;8.73;36.83
51245;BME280;37840;47.562;18.738;2023-04-04T09:57:29;99813.09;;;8.71;36.30
51245;BME280;37840;47.562;18.738;2023-04-04T10:00:02;99811.81;;;8.78;35.28
51245;BME280;37840;47.562;18.738;2023-04-04T10:02:31;99804.00;;;8.89;35.10
51245;BME280;37840;47.562;18.738;2023-04-04T10:04:57;99801.81;;;8.96;34.68
51245;BME280;37840;47.562;18.738;2023-04-04T10:07:30;99795.00;;;9.06;36.58
51245;BME280;37840;47.562;18.738;2023-04-04T10:10:04;99789.84;;;9.17;36.35
51245;BME280;37840;47.562;18.738;2023-04-04T10:12:30;99787.94;;;9.19;35.97
51245;BME280;37840;47.562;18.738;2023-04-04T10:14:59;99788.44;;;9.39;36.27
51245;BME280;37840;47.562;18.738;2023-04-04T10:17:38;99791.56;;;9.46;35.84
51245;BME280;37840;47.562;18.738;2023-04-04T10:20:04;99791.31;;;9.36;34.79
51245;BME280;37840;47.562;18.738;2023-04-04T10:22:31;99797.81;;;9.45;35.57
51245;BME280;37840;47.562;18.738;2023-04-04T10:24:57;99799.78;;;9.68;34.13
51245;BME280;37840;47.562;18.738;2023-04-04T10:27:24;99795.87;;;9.74;34.83
51245;BME280;37840;47.562;18.738;2023-04-04T10:29:50;99789.31;;;9.92;35.40
51245;BME280;37840;47.562;18.738;2023-04-04T10:32:18;99782.41;;;9.90;34.44
51245;BME280;37840;47.562;18.738;2023-04-04T10:34:49;99786.47;;;9.95;33.26
51245;BME280;37840;47.562;18.738;2023-04-04T10:37:23;99779.75;;;9.90;34.55
51245;BME280;37840;47.562;18.738;2023-04-04T10:39:56;99779.97;;;9.87;35.06
51245;BME280;37840;47.562;18.738;2023-04-04T10:42:26;99775.75;;;9.97;35.29
51245;BME280;37840;47.562;18.738;2023-04-04T10:44:55;99771.19;;;9.99;35.83
51245;BME280;37840;47.562;18.738;2023-04-04T10:47:21;99770.53;;;9.95;34.91
51245;BME280;37840;47.562;18.738;2023-04-04T10:49:48;99764.06;;;9.99;35.33
51245;BME280;37840;47.562;18.738;2023-04-04T10:52:15;99760.34;;;10.02;33.50
51245;BME280;37840;47.562;18.738;2023-04-04T10:54:41;99761.28;;;9.88;34.89
51245;BME280;37840;47.562;18.738;2023-04-04T10:57:08;99764.78;;;9.89;35.96
51245;BME280;37840;47.562;18.738;2023-04-04T10:59:54;99760.09;;;9.92;33.71
51245;BME280;37840;47.562;18.738;2023-04-04T11:02:41;99756.06;;;9.74;34.23
51245;BME280;37840;47.562;18.738;2023-04-04T11:07:43;99758.16;;;9.69;33.87
51245;BME280;37840;47.562;18.738;2023-04-04T11:10:13;99748.00;;;9.75;34.61
51245;BME280;37840;47.562;18.738;2023-04-04T11:12:43;99750.75;;;9.74;35.06
51245;BME280;37840;47.562;18.738;2023-04-04T11:15:12;99756.06;;;9.74;34.21
51245;BME280;37840;47.562;18.738;2023-04-04T11:20:14;99746.22;;;9.49;33.86
51245;BME280;37840;47.562;18.738;2023-04-04T11:22:41;99749.31;;;9.55;34.92
51245;BME280;37840;47.562;18.738;2023-04-04T11:27:55;99745.34;;;9.88;33.71
51245;BME280;37840;47.562;18.738;2023-04-04T11:30:21;99740.47;;;9.95;34.70
51245;BME280;37840;47.562;18.738;2023-04-04T11:32:47;99745.34;;;9.75;34.09
51245;BME280;37840;47.562;18.738;2023-04-04T11:35:13;99742.03;;;9.85;33.74
51245;BME280;37840;47.562;18.738;2023-04-04T11:37:58;99743.97;;;9.83;32.89
51245;BME280;37840;47.562;18.738;2023-04-04T11:40:32;99737.06;;;9.80;33.45
51245;BME280;37840;47.562;18.738;2023-04-04T11:42:58;99738.06;;;9.65;32.42
51245;BME280;37840;47.562;18.738;2023-04-04T11:45:28;99732.22;;;9.59;33.68
51245;BME280;37840;47.562;18.738;2023-04-04T11:47:54;99735.91;;;9.44;33.89
51245;BME280;37840;47.562;18.738;2023-04-04T11:50:20;99734.66;;;9.63;34.17
51245;BME280;37840;47.562;18.738;2023-04-04T11:52:46;99733.59;;;9.52;35.03
51245;BME280;37840;47.562;18.738;2023-04-04T11:55:15;99733.47;;;9.54;33.32
51245;BME280;37840;47.562;18.738;2023-04-04T11:57:41;99724.91;;;9.50;33.32
51245;BME280;37840;47.562;18.738;2023-04-04T12:00:07;99726.91;;;9.59;34.28
51245;BME280;37840;47.562;18.738;2023-04-04T12:02:34;99728.00;;;9.70;34.21
51245;BME280;37840;47.562;18.738;2023-04-04T12:04:59;99727.69;;;9.87;33.74
51245;BME280;37840;47.562;18.738;2023-04-04T12:07:26;99721.63;;;9.72;34.03
51245;BME280;37840;47.562;18.738;2023-04-04T12:09:52;99722.44;;;9.60;33.60
51245;BME280;37840;47.562;18.738;2023-04-04T12:12:19;99718.34;;;9.82;35.30
51245;BME280;37840;47.562;18.738;2023-04-04T12:14:46;99711.66;;;10.02;34.56
51245;BME280;37840;47.562;18.738;2023-04-04T12:17:12;99715.69;;;10.07;35.20
51245;BME280;37840;47.562;18.738;2023-04-04T12:19:40;99713.16;;;10.18;33.58
51245;BME280;37840;47.562;18.738;2023-04-04T12:22:06;99700.72;;;10.19;32.41
51245;BME280;37840;47.562;18.738;2023-04-04T12:24:34;99713.34;;;10.03;32.66
51245;BME280;37840;47.562;18.738;2023-04-04T12:27:01;99701.03;;;10.14;31.06
51245;BME280;37840;47.562;18.738;2023-04-04T12:29:28;99703.13;;;10.22;32.16
51245;BME280;37840;47.562;18.738;2023-04-04T12:32:00;99697.53;;;10.27;32.52
51245;BME280;37840;47.562;18.738;2023-04-04T12:34:33;99694.88;;;10.27;33.21
51245;BME280;37840;47.562;18.738;2023-04-04T12:36:59;99697.72;;;10.24;32.48
51245;BME280;37840;47.562;18.738;2023-04-04T12:39:26;99694.47;;;10.20;32.59
51245;BME280;37840;47.562;18.738;2023-04-04T12:41:58;99692.94;;;10.29;32.58
51245;BME280;37840;47.562;18.738;2023-04-04T12:44:24;99686.16;;;10.37;32.52
51245;BME280;37840;47.562;18.738;2023-04-04T12:46:51;99686.78;;;10.15;32.26
51245;BME280;37840;47.562;18.738;2023-04-04T12:49:20;99675.63;;;10.10;33.02
51245;BME280;37840;47.562;18.738;2023-04-04T12:51:46;99683.59;;;10.23;32.39
51245;BME280;37840;47.562;18.738;2023-04-04T12:54:25;99670.06;;;10.26;31.80
51245;BME280;37840;47.562;18.738;2023-04-04T12:56:57;99680.22;;;10.34;33.05
51245;BME280;37840;47.562;18.738;2023-04-04T12:59:30;99676.03;;;10.43;32.23
51245;BME280;37840;47.562;18.738;2023-04-04T13:01:57;99665.84;;;10.36;32.62
51245;BME280;37840;47.562;18.738;2023-04-04T13:04:25;99669.69;;;10.32;30.73
51245;BME280;37840;47.562;18.738;2023-04-04T13:06:50;99669.97;;;10.28;31.88